createdAt,value
2018-05-29T00:00:58.955Z,62.66
2018-05-29T00:02:08.936Z,62.86
2018-05-29T00:03:18.917Z,63.24
2018-05-29T00:04:28.631Z,62.86
2018-05-29T00:05:38.607Z,63.24
2018-05-29T00:06:48.326Z,63.05
2018-05-29T00:07:58.313Z,64.01
2018-05-29T00:09:08.300Z,63.15
2018-05-29T00:10:18.280Z,63.63
2018-05-29T00:11:27.992Z,63.43
2018-05-29T00:12:38.316Z,63.5
2018-05-29T00:13:48.045Z,63.7
2018-05-29T00:14:58.028Z,63.4
2018-05-29T00:16:07.748Z,63.98
2018-05-29T00:17:17.730Z,63.89
2018-05-29T00:18:27.445Z,63.89
2018-05-29T00:19:37.425Z,63.98
2018-05-29T00:20:47.412Z,64.08
2018-05-29T00:21:57.143Z,64.18
2018-05-29T00:23:06.851Z,64.08
2018-05-29T00:24:16.578Z,64.08
2018-05-29T00:25:26.552Z,64.18
2018-05-29T00:26:36.277Z,64.28
2018-05-29T00:27:46.251Z,64.37
2018-05-29T00:28:56.222Z,64.47
2018-05-29T00:30:05.936Z,64.76
2018-05-29T00:31:15.917Z,64.56
2018-05-29T00:32:25.885Z,64.56
2018-05-29T00:33:35.341Z,64.47
2018-05-29T00:34:44.788Z,64.56
2018-05-29T00:35:54.769Z,64.66
2018-05-29T00:37:04.749Z,64.66
2018-05-29T00:38:14.736Z,64.66
2018-05-29T00:39:24.450Z,64.92
2018-05-29T00:40:34.423Z,64.95
2018-05-29T00:41:44.406Z,64.86
2018-05-29T00:42:54.396Z,64.86
2018-05-29T00:44:04.365Z,65.24
2018-05-29T00:45:14.358Z,65.3
2018-05-29T00:46:24.321Z,65.78
2018-05-29T00:47:34.305Z,65.5
2018-05-29T00:48:44.284Z,65.78
2018-05-29T00:49:53.994Z,65.78
2018-05-29T00:51:03.974Z,65.78
2018-05-29T00:52:13.957Z,66.17
2018-05-29T00:53:23.676Z,65.98
2018-05-29T00:54:33.658Z,66.36
2018-05-29T00:55:43.373Z,66.36
2018-05-29T00:56:53.097Z,66.17
2018-05-29T00:58:03.226Z,66.17
2018-05-29T00:59:12.945Z,66.17
2018-05-29T01:00:22.656Z,65.98
2018-05-29T01:01:32.637Z,66.56
2018-05-29T01:02:42.618Z,66.36
2018-05-29T01:03:52.597Z,66.46
2018-05-29T01:05:02.576Z,66.62
2018-05-29T01:06:12.552Z,67.04
2018-05-29T01:07:22.020Z,66.91
2018-05-29T01:08:31.985Z,66.52
2018-05-29T01:09:41.699Z,66.62
2018-05-29T01:10:51.414Z,66.82
2018-05-29T01:12:01.391Z,66.72
2018-05-29T01:13:11.098Z,66.62
2018-05-29T01:14:21.069Z,66.72
2018-05-29T01:15:31.045Z,66.82
2018-05-29T01:16:41.025Z,66.82
2018-05-29T01:17:50.744Z,66.82
2018-05-29T01:19:00.715Z,67.2
2018-05-29T01:20:10.700Z,67.1
2018-05-29T01:21:20.724Z,67.1
2018-05-29T01:22:30.445Z,67.2
2018-05-29T01:23:40.421Z,67.58
2018-05-29T01:24:50.130Z,67.49
2018-05-29T01:26:00.132Z,67.1
2018-05-29T01:27:09.853Z,67.49
2018-05-29T01:28:19.834Z,67.68
2018-05-29T01:29:29.810Z,67.97
2018-05-29T01:30:39.779Z,67.78
2018-05-29T01:31:49.484Z,67.88
2018-05-29T01:32:59.199Z,67.97
2018-05-29T01:34:09.274Z,68.16
2018-05-29T01:35:19.253Z,67.78
2018-05-29T01:36:29.220Z,68.45
2018-05-29T01:37:39.195Z,68.07
2018-05-29T01:38:49.165Z,68.52
2018-05-29T01:39:59.139Z,68.84
2018-05-29T01:41:09.130Z,68.8
2018-05-29T01:42:18.852Z,68.8
2018-05-29T01:43:28.564Z,68.8
2018-05-29T01:44:38.300Z,69.67
2018-05-29T01:45:48.017Z,69.38
2018-05-29T01:46:57.984Z,69.48
2018-05-29T01:48:07.965Z,69.57
2018-05-29T01:49:17.946Z,69.48
2018-05-29T01:50:27.934Z,69.67
2018-05-29T01:51:37.653Z,69.38
2018-05-29T01:52:47.623Z,69.48
2018-05-29T01:53:57.608Z,69.48
2018-05-29T01:55:07.319Z,69.67
2018-05-29T01:56:17.296Z,69.57
2018-05-29T01:57:27.266Z,69.87
2018-05-29T01:58:37.231Z,69.67
2018-05-29T01:59:47.221Z,70.06
2018-05-29T02:00:57.200Z,70.06
2018-05-29T02:02:06.923Z,69.45
2018-05-29T02:03:16.892Z,70.15
2018-05-29T02:04:26.841Z,69.64
2018-05-29T02:05:36.909Z,70.31
2018-05-29T02:06:46.629Z,69.73
2018-05-29T02:07:56.603Z,70.31
2018-05-29T02:09:06.580Z,70.41
2018-05-29T02:10:16.565Z,70.35
2018-05-29T02:11:26.544Z,70.5
2018-05-29T02:12:36.261Z,70.6
2018-05-29T02:13:45.989Z,70.6
2018-05-29T02:14:55.970Z,70.5
2018-05-29T02:16:05.684Z,70.89
2018-05-29T02:17:15.653Z,71.08
2018-05-29T02:18:25.633Z,70.98
2018-05-29T02:19:35.348Z,71.37
2018-05-29T02:20:44.808Z,71.28
2018-05-29T02:21:54.782Z,71.37
2018-05-29T02:23:04.497Z,71.56
2018-05-29T02:24:14.469Z,71.37
2018-05-29T02:25:24.196Z,71.85
2018-05-29T02:26:33.905Z,71.56
2018-05-29T02:27:43.360Z,71.85
2018-05-29T02:28:53.079Z,71.37
2018-05-29T02:30:03.058Z,71.91
2018-05-29T02:31:13.057Z,71.91
2018-05-29T02:32:23.033Z,71.47
2018-05-29T02:33:32.508Z,72.3
2018-05-29T02:34:42.514Z,72.01
2018-05-29T02:35:52.491Z,72.01
2018-05-29T02:37:02.467Z,72.01
2018-05-29T02:38:12.443Z,72.01
2018-05-29T02:39:22.419Z,72.01
2018-05-29T02:40:32.399Z,72.11
2018-05-29T02:41:42.378Z,72.49
2018-05-29T02:42:52.386Z,72.3
2018-05-29T02:44:02.100Z,72.59
2018-05-29T02:45:12.093Z,72.59
2018-05-29T02:46:22.083Z,72.68
2018-05-29T02:47:32.069Z,72.49
2018-05-29T02:48:42.049Z,73.07
2018-05-29T02:49:52.029Z,72.3
2018-05-29T02:51:02.009Z,72.88
2018-05-29T02:52:11.724Z,72.97
2018-05-29T02:53:21.701Z,72.97
2018-05-29T02:54:31.668Z,73.07
2018-05-29T02:55:41.118Z,72.94
2018-05-29T02:56:51.100Z,73.13
2018-05-29T02:58:01.086Z,73.51
2018-05-29T02:59:11.054Z,73.13
2018-05-29T03:00:21.033Z,73.61
2018-05-29T03:01:30.487Z,73.42
2018-05-29T03:02:40.470Z,73.42
2018-05-29T03:03:50.450Z,73.51
2018-05-29T03:05:00.428Z,73.42
2018-05-29T03:06:10.134Z,73.8
2018-05-29T03:07:19.853Z,73.71
2018-05-29T03:08:29.836Z,73.71
2018-05-29T03:09:39.821Z,73.61
2018-05-29T03:10:49.795Z,74.29
2018-05-29T03:11:59.762Z,74.38
2018-05-29T03:13:09.733Z,74.19
2018-05-29T03:14:19.710Z,74.38
2018-05-29T03:15:29.421Z,74.29
2018-05-29T03:16:39.384Z,74.19
2018-05-29T03:17:49.356Z,74.38
2018-05-29T03:18:59.335Z,74.38
2018-05-29T03:20:09.323Z,74.86
2018-05-29T03:21:19.297Z,75.05
2018-05-29T03:22:29.018Z,74.67
2018-05-29T03:23:38.994Z,74.57
2018-05-29T03:24:48.971Z,74.67
2018-05-29T03:25:58.965Z,75.15
2018-05-29T03:27:08.668Z,75.15
2018-05-29T03:28:18.387Z,74.67
2018-05-29T03:29:28.366Z,75.15
2018-05-29T03:30:38.090Z,75.05
2018-05-29T03:31:47.811Z,75.15
2018-05-29T03:32:57.817Z,74.96
2018-05-29T03:34:07.794Z,75.44
2018-05-29T03:35:17.783Z,75.05
2018-05-29T03:36:27.753Z,74.76
2018-05-29T03:37:37.731Z,75.05
2018-05-29T03:38:47.461Z,75.05
2018-05-29T03:39:57.185Z,74.86
2018-05-29T03:41:07.174Z,75.15
2018-05-29T03:42:16.904Z,75.05
2018-05-29T03:43:26.914Z,74.67
2018-05-29T03:44:36.629Z,75.05
2018-05-29T03:45:46.609Z,74.96
2018-05-29T03:46:56.576Z,75.05
2018-05-29T03:48:06.542Z,74.86
2018-05-29T03:49:15.992Z,74.86
2018-05-29T03:50:25.439Z,75.05
2018-05-29T03:51:35.419Z,75.24
2018-05-29T03:52:45.140Z,75.05
2018-05-29T03:53:54.855Z,75.15
2018-05-29T03:55:04.835Z,75.15
2018-05-29T03:56:14.806Z,74.86
2018-05-29T03:57:24.786Z,74.96
2018-05-29T03:58:34.758Z,75.05
2018-05-29T03:59:44.472Z,75.15
2018-05-29T04:00:54.430Z,74.67
2018-05-29T04:02:04.153Z,74.67
2018-05-29T04:03:14.134Z,74.67
2018-05-29T04:04:24.101Z,74.76
2018-05-29T04:05:34.072Z,74.67
2018-05-29T04:06:44.041Z,74.67
2018-05-29T04:07:54.008Z,74.57
2018-05-29T04:09:03.717Z,74.67
2018-05-29T04:10:13.700Z,74.67
2018-05-29T04:11:23.416Z,74.76
2018-05-29T04:12:33.387Z,74.57
2018-05-29T04:13:43.104Z,74.76
2018-05-29T04:14:52.838Z,74.19
2018-05-29T04:16:02.823Z,74.67
2018-05-29T04:17:12.791Z,74.67
2018-05-29T04:18:22.500Z,74.29
2018-05-29T04:19:32.487Z,74.09
2018-05-29T04:20:42.458Z,74.29
2018-05-29T04:21:52.450Z,74.29
2018-05-29T04:23:02.174Z,74.22
2018-05-29T04:24:12.145Z,74.41
2018-05-29T04:25:21.863Z,74.51
2018-05-29T04:26:31.587Z,73.74
2018-05-29T04:27:41.305Z,74.13
2018-05-29T04:28:51.029Z,73.74
2018-05-29T04:30:00.489Z,74.32
2018-05-29T04:31:10.455Z,73.55
2018-05-29T04:32:19.909Z,73.55
2018-05-29T04:33:29.620Z,74.13
2018-05-29T04:34:39.334Z,74.22
2018-05-29T04:35:48.790Z,74.03
2018-05-29T04:36:58.761Z,74.03
2018-05-29T04:38:08.730Z,73.55
2018-05-29T04:39:18.704Z,73.26
2018-05-29T04:40:28.690Z,73.07
2018-05-29T04:41:38.405Z,72.49
2018-05-29T04:42:48.373Z,72.78
2018-05-29T04:43:58.354Z,72.97
2018-05-29T04:45:08.070Z,72.81
2018-05-29T04:46:18.058Z,72.97
2018-05-29T04:47:28.036Z,72.88
2018-05-29T04:48:38.020Z,72.49
2018-05-29T04:49:47.573Z,72.49
2018-05-29T04:50:57.313Z,72.24
2018-05-29T04:52:07.313Z,72.14
2018-05-29T04:53:17.046Z,72.14
2018-05-29T04:54:27.020Z,71.47
2018-05-29T04:55:36.745Z,71.66
2018-05-29T04:56:46.469Z,71.66
2018-05-29T04:57:56.457Z,71.47
2018-05-29T04:59:06.440Z,71.66
2018-05-29T05:00:16.413Z,71.28
2018-05-29T05:01:26.409Z,71.56
2018-05-29T05:02:36.480Z,71.37
2018-05-29T05:03:46.597Z,71.95
2018-05-29T05:04:56.309Z,71.47
2018-05-29T05:06:06.305Z,71.56
2018-05-29T05:07:15.771Z,72.05
2018-05-29T05:08:25.507Z,71.28
2018-05-29T05:09:35.476Z,71.76
2018-05-29T05:10:44.941Z,71.47
2018-05-29T05:11:54.676Z,72.05
2018-05-29T05:13:04.661Z,71.76
2018-05-29T05:14:14.651Z,71.28
2018-05-29T05:15:24.623Z,71.08
2018-05-29T05:16:34.602Z,71.28
2018-05-29T05:17:44.309Z,70.98
2018-05-29T05:18:54.270Z,71.18
2018-05-29T05:20:03.993Z,71.08
2018-05-29T05:21:13.779Z,70.98
2018-05-29T05:22:23.238Z,71.47
2018-05-29T05:23:32.784Z,71.12
2018-05-29T05:24:42.920Z,70.64
2018-05-29T05:25:52.641Z,71.12
2018-05-29T05:27:02.633Z,70.64
2018-05-29T05:28:12.631Z,71.6
2018-05-29T05:29:22.621Z,70.54
2018-05-29T05:30:32.723Z,70.06
2018-05-29T05:31:42.774Z,70.06
2018-05-29T05:32:52.793Z,69.38
2018-05-29T05:34:02.809Z,69.48
2018-05-29T05:35:12.556Z,69.57
2018-05-29T05:36:22.812Z,68.8
2018-05-29T05:37:32.812Z,68.8
2018-05-29T05:38:42.799Z,68.93
2018-05-29T05:39:52.782Z,68.55
2018-05-29T05:41:03.009Z,67.88
2018-05-29T05:42:12.483Z,68.16
2018-05-29T05:43:22.477Z,67.88
2018-05-29T05:44:32.190Z,67.68
2018-05-29T05:45:42.177Z,67.49
2018-05-29T05:46:52.164Z,68.16
2018-05-29T05:48:01.897Z,67.97
2018-05-29T05:49:11.634Z,67
2018-05-29T05:50:21.359Z,67.23
2018-05-29T05:51:31.349Z,67.14
2018-05-29T05:52:41.380Z,66.85
2018-05-29T05:53:51.574Z,66.94
2018-05-29T05:55:01.029Z,66.56
2018-05-29T05:56:11.016Z,66.75
2018-05-29T05:57:20.749Z,65.5
2018-05-29T05:58:30.825Z,66.27
2018-05-29T05:59:41.047Z,66.36
2018-05-29T06:00:51.022Z,65.82
2018-05-29T06:02:00.999Z,65.72
2018-05-29T06:03:10.712Z,65.72
2018-05-29T06:04:20.716Z,65.24
2018-05-29T06:05:30.836Z,64.66
2018-05-29T06:06:40.849Z,64.47
2018-05-29T06:07:50.864Z,64.47
2018-05-29T06:09:00.854Z,63.89
2018-05-29T06:10:10.842Z,64.56
2018-05-29T06:11:20.854Z,64.37
2018-05-29T06:12:30.865Z,64.08
2018-05-29T06:13:40.591Z,63.89
2018-05-29T06:14:50.584Z,64.11
2018-05-29T06:16:00.320Z,63.63
2018-05-29T06:17:10.393Z,63.43
2018-05-29T06:18:20.408Z,63.43
2018-05-29T06:19:30.376Z,62.86
2018-05-29T06:20:40.102Z,62.37
2018-05-29T06:21:49.921Z,61.7
2018-05-29T06:22:59.666Z,62.5
2018-05-29T06:24:09.425Z,61.44
2018-05-29T06:25:19.437Z,61.54
2018-05-29T06:26:29.418Z,62.21
2018-05-29T06:27:39.404Z,61.25
2018-05-29T06:28:49.404Z,60.57
2018-05-29T06:29:59.147Z,60.57
2018-05-29T06:31:08.898Z,59.89
2018-05-29T06:32:18.876Z,60.47
2018-05-29T06:33:28.860Z,59.83
2018-05-29T06:34:38.596Z,59.63
2018-05-29T06:35:48.575Z,59.34
2018-05-29T06:36:58.304Z,59.15
2018-05-29T06:38:08.346Z,59.05
2018-05-29T06:39:18.423Z,59.15
2018-05-29T06:40:28.402Z,58.67
2018-05-29T06:41:38.415Z,58.28
2018-05-29T06:42:48.129Z,57.63
2018-05-29T06:43:58.119Z,57.82
2018-05-29T06:45:08.405Z,57.54
2018-05-29T06:46:18.560Z,57.24
2018-05-29T06:47:28.547Z,57.05
2018-05-29T06:48:38.295Z,56.37
2018-05-29T06:49:48.005Z,56.37
2018-05-29T06:50:57.977Z,55.73
2018-05-29T06:52:07.714Z,55.15
2018-05-29T06:53:17.457Z,55.15
2018-05-29T06:54:27.443Z,55.53
2018-05-29T06:55:37.170Z,55.15
2018-05-29T06:56:47.168Z,55.05
2018-05-29T06:57:57.158Z,55.24
2018-05-29T06:59:07.141Z,54.47
2018-05-29T07:00:16.873Z,54.11
2018-05-29T07:01:26.852Z,52.95
2018-05-29T07:02:36.854Z,52.75
2018-05-29T07:03:46.592Z,52.08
2018-05-29T07:04:56.482Z,52.08
2018-05-29T07:06:06.232Z,51.13
2018-05-29T07:07:15.953Z,52.2
2018-05-29T07:08:25.946Z,52.1
2018-05-29T07:09:35.940Z,51.23
2018-05-29T07:10:45.670Z,52.1
2018-05-29T07:11:55.661Z,51.23
2018-05-29T07:13:05.662Z,50.94
2018-05-29T07:14:15.134Z,51.04
2018-05-29T07:15:25.197Z,50.48
2018-05-29T07:16:35.172Z,50.45
2018-05-29T07:17:45.156Z,50.09
2018-05-29T07:18:55.150Z,50.57
2018-05-29T07:20:04.630Z,50.19
2018-05-29T07:21:14.605Z,50.57
2018-05-29T07:22:24.073Z,49.8
2018-05-29T07:23:34.071Z,50.38
2018-05-29T07:24:44.116Z,48.83
2018-05-29T07:25:54.264Z,49.63
2018-05-29T07:27:04.246Z,49.54
2018-05-29T07:28:14.297Z,49.15
2018-05-29T07:29:24.280Z,49.24
2018-05-29T07:30:34.295Z,49.15
2018-05-29T07:31:44.289Z,48.27
2018-05-29T07:32:54.296Z,47.72
2018-05-29T07:34:04.032Z,47.33
2018-05-29T07:35:13.504Z,47.33
2018-05-29T07:36:23.518Z,47.03
2018-05-29T07:37:33.270Z,46.65
2018-05-29T07:38:43.017Z,45.29
2018-05-29T07:39:53.091Z,43.93
2018-05-29T07:41:03.070Z,43.26
2018-05-29T07:42:12.546Z,43.06
2018-05-29T07:43:22.278Z,42.3
2018-05-29T07:44:32.294Z,41.82
2018-05-29T07:45:41.783Z,41.82
2018-05-29T07:46:51.767Z,41.82
2018-05-29T07:48:01.509Z,41.24
2018-05-29T07:49:11.764Z,41.33
2018-05-29T07:50:21.756Z,41.92
2018-05-29T07:51:31.775Z,42.21
2018-05-29T07:52:41.503Z,41.14
2018-05-29T07:53:51.564Z,41.82
2018-05-29T07:55:01.629Z,42.61
2018-05-29T07:56:11.656Z,42.71
2018-05-29T07:57:21.651Z,42.81
2018-05-29T07:58:31.343Z,43.1
2018-05-29T07:59:41.327Z,42.13
2018-05-29T08:00:51.335Z,40.79
2018-05-29T08:02:01.336Z,39.62
2018-05-29T08:03:11.337Z,39.92
2018-05-29T08:04:21.347Z,39.53
2018-05-29T08:05:31.368Z,39.04
2018-05-29T08:06:41.115Z,38.56
2018-05-29T08:07:50.887Z,37.98
2018-05-29T08:09:00.906Z,37.98
2018-05-29T08:10:10.941Z,37.9
2018-05-29T08:11:20.688Z,38.56
2018-05-29T08:12:30.682Z,38.37
2018-05-29T08:13:40.689Z,38.57
2018-05-29T08:14:50.472Z,39.14
2018-05-29T08:16:00.204Z,39.65
2018-05-29T08:17:10.162Z,39.55
2018-05-29T08:18:20.182Z,38.87
2018-05-29T08:19:29.923Z,37.99
2018-05-29T08:20:39.941Z,37.22
2018-05-29T08:21:49.698Z,37.12
2018-05-29T08:22:59.733Z,37.32
2018-05-29T08:24:09.724Z,37.8
2018-05-29T08:25:19.462Z,38.29
2018-05-29T08:26:29.246Z,38.77
2018-05-29T08:27:39.488Z,37.51
2018-05-29T08:28:49.523Z,37.7
2018-05-29T08:29:59.640Z,37.9
2018-05-29T08:31:09.743Z,37.8
2018-05-29T08:32:19.742Z,38.67
2018-05-29T08:33:29.225Z,38.67
2018-05-29T08:34:39.289Z,38.21
2018-05-29T08:35:49.294Z,37.14
2018-05-29T08:36:59.079Z,37.35
2018-05-29T08:38:08.833Z,36.77
2018-05-29T08:39:18.388Z,35.91
2018-05-29T08:40:28.737Z,36.8
2018-05-29T08:41:38.469Z,35.73
2018-05-29T08:42:48.453Z,35.15
2018-05-29T08:43:57.927Z,35.63
2018-05-29T08:45:07.946Z,34.78
2018-05-29T08:46:17.490Z,34.39
2018-05-29T08:47:27.397Z,34.48
2018-05-29T08:48:37.386Z,34.78
2018-05-29T08:49:47.121Z,34.78
2018-05-29T08:50:57.110Z,34.68
2018-05-29T08:52:07.104Z,34.68
2018-05-29T08:53:17.100Z,35.16
2018-05-29T08:54:27.127Z,35.16
2018-05-29T08:55:37.129Z,34.88
2018-05-29T08:56:47.197Z,34.59
2018-05-29T08:57:57.327Z,34.22
2018-05-29T08:59:07.349Z,33.44
2018-05-29T09:00:17.076Z,33.54
2018-05-29T09:01:27.079Z,33.36
2018-05-29T09:02:37.086Z,33.07
2018-05-29T09:03:47.134Z,32.58
2018-05-29T09:04:57.738Z,33.36
2018-05-29T09:06:07.764Z,32.68
2018-05-29T09:07:17.799Z,32.39
2018-05-29T09:08:27.802Z,31.92
2018-05-29T09:09:37.812Z,31.45
2018-05-29T09:10:47.550Z,31.74
2018-05-29T09:11:57.808Z,31.54
2018-05-29T09:13:07.869Z,31.35
2018-05-29T09:14:17.606Z,30.58
2018-05-29T09:15:27.616Z,30.77
2018-05-29T09:16:37.626Z,30.37
2018-05-29T09:17:47.620Z,30.29
2018-05-29T09:18:57.614Z,30.09
2018-05-29T09:20:07.812Z,30.29
2018-05-29T09:21:17.584Z,30.29
2018-05-29T09:22:27.329Z,29.99
2018-05-29T09:23:37.327Z,30.27
2018-05-29T09:24:47.339Z,30.19
2018-05-29T09:25:57.362Z,29.99
2018-05-29T09:27:07.481Z,29.6
2018-05-29T09:28:17.483Z,29.9
2018-05-29T09:29:27.487Z,30.09
2018-05-29T09:30:37.608Z,29.69
2018-05-29T09:31:47.351Z,30.18
2018-05-29T09:32:57.162Z,30.37
2018-05-29T09:34:07.161Z,29.98
2018-05-29T09:35:17.139Z,29.88
2018-05-29T09:36:26.893Z,29.41
2018-05-29T09:37:36.934Z,29.11
2018-05-29T09:38:47.055Z,29.5
2018-05-29T09:39:56.834Z,29.21
2018-05-29T09:41:06.838Z,29.98
2018-05-29T09:42:16.858Z,30.09
2018-05-29T09:43:26.869Z,29.9
2018-05-29T09:44:36.642Z,29.13
2018-05-29T09:45:46.612Z,29.42
2018-05-29T09:46:56.929Z,29.32
2018-05-29T09:48:06.415Z,29.61
2018-05-29T09:49:16.259Z,28.75
2018-05-29T09:50:25.991Z,28.06
2018-05-29T09:51:35.734Z,27.76
2018-05-29T09:52:45.782Z,28.45
2018-05-29T09:53:55.589Z,28.75
2018-05-29T09:55:05.323Z,28.45
2018-05-29T09:56:15.381Z,28.75
2018-05-29T09:57:25.146Z,28.45
2018-05-29T09:58:34.615Z,28.06
2018-05-29T09:59:44.364Z,28.38
2018-05-29T10:00:54.104Z,27.59
2018-05-29T10:02:03.580Z,27.61
2018-05-29T10:03:13.590Z,27.5
2018-05-29T10:04:23.589Z,27.8
2018-05-29T10:05:33.351Z,27.31
2018-05-29T10:06:43.389Z,27.29
2018-05-29T10:07:53.370Z,27.78
2018-05-29T10:09:03.367Z,27.78
2018-05-29T10:10:13.108Z,27.59
2018-05-29T10:11:23.340Z,26.72
2018-05-29T10:12:33.093Z,26.93
2018-05-29T10:13:42.832Z,27.12
2018-05-29T10:14:52.890Z,26.55
2018-05-29T10:16:02.628Z,26.44
2018-05-29T10:17:12.629Z,26.54
2018-05-29T10:18:22.409Z,25.76
2018-05-29T10:19:32.424Z,26.44
2018-05-29T10:20:42.156Z,26.53
2018-05-29T10:21:52.129Z,26.23
2018-05-29T10:23:01.871Z,26.53
2018-05-29T10:24:11.872Z,26.43
2018-05-29T10:25:21.605Z,26.42
2018-05-29T10:26:31.334Z,26.62
2018-05-29T10:27:41.083Z,26.53
2018-05-29T10:28:51.079Z,26.25
2018-05-29T10:30:01.103Z,26.25
2018-05-29T10:31:11.151Z,25.39
2018-05-29T10:32:21.153Z,25.11
2018-05-29T10:33:31.203Z,24.91
2018-05-29T10:34:40.957Z,24.25
2018-05-29T10:35:50.963Z,23.66
2018-05-29T10:37:00.997Z,23.67
2018-05-29T10:38:10.983Z,23.57
2018-05-29T10:39:20.997Z,24.75
2018-05-29T10:40:31.004Z,25.12
2018-05-29T10:41:40.744Z,24.91
2018-05-29T10:42:50.763Z,23.94
2018-05-29T10:44:00.736Z,23.75
2018-05-29T10:45:10.505Z,23.75
2018-05-29T10:46:20.508Z,23.17
2018-05-29T10:47:30.520Z,23.36
2018-05-29T10:48:40.519Z,22.48
2018-05-29T10:49:50.534Z,22.38
2018-05-29T10:51:00.286Z,22.77
2018-05-29T10:52:10.033Z,23.27
2018-05-29T10:53:20.047Z,22.67
2018-05-29T10:54:30.071Z,22.48
2018-05-29T10:55:40.143Z,22.77
2018-05-29T10:56:50.143Z,22.67
2018-05-29T10:58:00.179Z,22.88
2018-05-29T10:59:10.331Z,22.47
2018-05-29T11:00:20.240Z,22.97
2018-05-29T11:01:30.243Z,23.75
2018-05-29T11:02:40.241Z,24.15
2018-05-29T11:03:49.728Z,24.64
2018-05-29T11:04:59.749Z,24.33
2018-05-29T11:06:09.770Z,24.25
2018-05-29T11:07:19.500Z,23.95
2018-05-29T11:08:29.293Z,23.75
2018-05-29T11:09:39.293Z,23.66
2018-05-29T11:10:49.311Z,22.98
2018-05-29T11:11:59.054Z,23.78
2018-05-29T11:13:08.785Z,23.97
2018-05-29T11:14:18.875Z,24.36
2018-05-29T11:15:29.017Z,24.55
2018-05-29T11:16:39.029Z,23.77
2018-05-29T11:17:48.776Z,24.84
2018-05-29T11:18:58.560Z,24.73
2018-05-29T11:20:08.742Z,24.74
2018-05-29T11:21:18.910Z,24.92
2018-05-29T11:22:28.920Z,24.74
2018-05-29T11:23:38.916Z,24.44
2018-05-29T11:24:48.673Z,24.15
2018-05-29T11:25:58.683Z,24.63
2018-05-29T11:27:08.704Z,24.32
2018-05-29T11:28:18.453Z,24.32
2018-05-29T11:29:28.460Z,24.31
2018-05-29T11:30:37.949Z,24.32
2018-05-29T11:31:47.955Z,24.91
2018-05-29T11:32:57.942Z,23.74
2018-05-29T11:34:07.936Z,23.46
2018-05-29T11:35:17.944Z,24.15
2018-05-29T11:36:27.936Z,23.46
2018-05-29T11:37:37.670Z,23.56
2018-05-29T11:38:47.668Z,23.36
2018-05-29T11:39:57.413Z,23.19
2018-05-29T11:41:07.168Z,22.81
2018-05-29T11:42:17.158Z,22.62
2018-05-29T11:43:27.231Z,23.4
2018-05-29T11:44:37.355Z,23.49
2018-05-29T11:45:47.379Z,23.3
2018-05-29T11:46:57.111Z,22.6
2018-05-29T11:48:06.867Z,22.98
2018-05-29T11:49:16.606Z,23.18
2018-05-29T11:50:26.358Z,23.75
2018-05-29T11:51:36.093Z,23.74
2018-05-29T11:52:45.842Z,23.85
2018-05-29T11:53:55.851Z,23.46
2018-05-29T11:55:05.591Z,23.86
2018-05-29T11:56:15.621Z,23.57
2018-05-29T11:57:25.624Z,22.98
2018-05-29T11:58:35.636Z,22.88
2018-05-29T11:59:45.403Z,22.6
2018-05-29T12:00:55.413Z,22.8
2018-05-29T12:02:04.921Z,21.81
2018-05-29T12:03:14.935Z,21.81
2018-05-29T12:04:24.924Z,21.23
2018-05-29T12:05:34.650Z,20.86
2018-05-29T12:06:44.642Z,19.8
2018-05-29T12:07:54.381Z,19.04
2018-05-29T12:09:03.860Z,18.46
2018-05-29T12:10:13.590Z,19.46
2018-05-29T12:11:23.585Z,19.74
2018-05-29T12:12:33.373Z,20.14
2018-05-29T12:13:43.371Z,19.53
2018-05-29T12:14:53.371Z,19.34
2018-05-29T12:16:03.392Z,19.65
2018-05-29T12:17:13.445Z,18.96
2018-05-29T12:18:23.444Z,20.03
2018-05-29T12:19:33.465Z,19.74
2018-05-29T12:20:43.229Z,18.95
2018-05-29T12:21:53.247Z,19.55
2018-05-29T12:23:03.246Z,18.67
2018-05-29T12:24:13.001Z,19.07
2018-05-29T12:25:22.758Z,19.55
2018-05-29T12:26:32.765Z,20.31
2018-05-29T12:27:42.525Z,20.88
2018-05-29T12:28:52.553Z,21.56
2018-05-29T12:30:02.548Z,21.26
2018-05-29T12:31:12.310Z,21.26
2018-05-29T12:32:22.312Z,21.07
2018-05-29T12:33:32.471Z,20.59
2018-05-29T12:34:42.201Z,21.47
2018-05-29T12:35:52.214Z,20.98
2018-05-29T12:37:02.215Z,21.26
2018-05-29T12:38:11.940Z,21.17
2018-05-29T12:39:21.935Z,21.17
2018-05-29T12:40:31.688Z,20.76
2018-05-29T12:41:41.691Z,20.86
2018-05-29T12:42:51.689Z,20.39
2018-05-29T12:44:01.690Z,19.9
2018-05-29T12:45:11.704Z,19.61
2018-05-29T12:46:21.926Z,20.31
2018-05-29T12:47:32.198Z,20.4
2018-05-29T12:48:42.193Z,20.68
2018-05-29T12:49:52.189Z,20.57
2018-05-29T12:51:01.924Z,20.96
2018-05-29T12:52:11.923Z,21.55
2018-05-29T12:53:21.494Z,21.45
2018-05-29T12:54:31.247Z,21.25
2018-05-29T12:55:41.238Z,21.44
2018-05-29T12:56:51.240Z,21.33
2018-05-29T12:58:01.254Z,21.33
2018-05-29T12:59:11.340Z,21.33
2018-05-29T13:00:21.439Z,21.64
2018-05-29T13:01:31.169Z,21.34
2018-05-29T13:02:41.178Z,21.26
2018-05-29T13:03:51.210Z,20.67
2018-05-29T13:05:00.952Z,21.64
2018-05-29T13:06:10.966Z,22.13
2018-05-29T13:07:20.984Z,21.73
2018-05-29T13:08:31.009Z,21.06
2018-05-29T13:09:40.753Z,21.17
2018-05-29T13:10:50.761Z,21.17
2018-05-29T13:12:00.506Z,20.87
2018-05-29T13:13:10.514Z,20.87
2018-05-29T13:14:20.529Z,20.78
2018-05-29T13:15:30.569Z,20.97
2018-05-29T13:16:40.658Z,20.86
2018-05-29T13:17:50.868Z,21.26
2018-05-29T13:19:00.870Z,21.15
2018-05-29T13:20:10.611Z,21.36
2018-05-29T13:21:20.587Z,21.07
2018-05-29T13:22:30.641Z,20.1
2018-05-29T13:23:40.588Z,20.11
2018-05-29T13:24:50.332Z,19.92
2018-05-29T13:26:00.053Z,20.51
2018-05-29T13:27:09.927Z,20.78
2018-05-29T13:28:19.339Z,21.17
2018-05-29T13:29:29.346Z,21.46
2018-05-29T13:30:39.356Z,21.45
2018-05-29T13:31:49.350Z,21.05
2018-05-29T13:32:59.092Z,21.75
2018-05-29T13:34:09.097Z,21.84
2018-05-29T13:35:19.251Z,21.64
2018-05-29T13:36:29.333Z,21.44
2018-05-29T13:37:39.345Z,21.45
2018-05-29T13:38:49.370Z,21.44
2018-05-29T13:39:59.363Z,21.45
2018-05-29T13:41:09.384Z,22.05
2018-05-29T13:42:18.872Z,21.94
2018-05-29T13:43:28.617Z,20.97
2018-05-29T13:44:38.357Z,20.88
2018-05-29T13:45:48.155Z,21.08
2018-05-29T13:46:57.894Z,21.07
2018-05-29T13:48:07.638Z,20.97
2018-05-29T13:49:17.461Z,20.97
2018-05-29T13:50:27.275Z,21.09
2018-05-29T13:51:37.275Z,20.89
2018-05-29T13:52:47.307Z,20.79
2018-05-29T13:53:57.314Z,20.9
2018-05-29T13:55:07.331Z,21.37
2018-05-29T13:56:17.330Z,21.46
2018-05-29T13:57:27.383Z,22.34
2018-05-29T13:58:37.389Z,22.13
2018-05-29T13:59:47.556Z,22.41
2018-05-29T14:00:57.571Z,22.23
2018-05-29T14:02:07.585Z,22.03
2018-05-29T14:03:17.582Z,21.65
2018-05-29T14:04:27.712Z,21.07
2018-05-29T14:05:37.715Z,20.79
2018-05-29T14:06:47.751Z,20.32
2018-05-29T14:07:57.506Z,19.73
2018-05-29T14:09:07.367Z,19.26
2018-05-29T14:10:17.098Z,19.66
2018-05-29T14:11:27.100Z,19.36
2018-05-29T14:12:36.863Z,20.24
2018-05-29T14:13:46.865Z,20.12
2018-05-29T14:14:56.829Z,20.42
2018-05-29T14:16:06.616Z,19.82
2018-05-29T14:17:16.377Z,19.15
2018-05-29T14:18:26.392Z,19.35
2018-05-29T14:19:36.444Z,18.98
2018-05-29T14:20:45.943Z,19.07
2018-05-29T14:21:55.948Z,19.76
2018-05-29T14:23:05.954Z,20.33
2018-05-29T14:24:15.974Z,20.31
2018-05-29T14:25:26.000Z,19.72
2018-05-29T14:26:35.786Z,20.12
2018-05-29T14:27:45.540Z,19.73
2018-05-29T14:28:55.534Z,19.34
2018-05-29T14:30:05.537Z,19.34
2018-05-29T14:31:15.281Z,19.35
2018-05-29T14:32:25.287Z,18.48
2018-05-29T14:33:35.315Z,18.27
2018-05-29T14:34:45.347Z,17.99
2018-05-29T14:35:55.083Z,18.08
2018-05-29T14:37:05.075Z,18.27
2018-05-29T14:38:15.079Z,18.87
2018-05-29T14:39:25.098Z,18.48
2018-05-29T14:40:35.095Z,18.18
2018-05-29T14:41:44.832Z,17.89
2018-05-29T14:42:54.337Z,17.9
2018-05-29T14:44:04.613Z,17.61
2018-05-29T14:45:14.951Z,18.1
2018-05-29T14:46:24.425Z,19.17
2018-05-29T14:47:34.420Z,19.44
2018-05-29T14:48:44.423Z,19.82
2018-05-29T14:49:54.173Z,20.39
2018-05-29T14:51:04.192Z,20.76
2018-05-29T14:52:14.417Z,20.76
2018-05-29T14:53:24.621Z,21.06
2018-05-29T14:54:34.661Z,20.57
2018-05-29T14:55:44.682Z,20.67
2018-05-29T14:56:54.714Z,20.86
2018-05-29T14:58:04.704Z,20.17
2018-05-29T14:59:14.705Z,20.48
2018-05-29T15:00:24.755Z,20.19
2018-05-29T15:01:34.481Z,19.9
2018-05-29T15:02:44.472Z,19.61